sensor_id;sensor_type;location;lat;lon;timestamp;P1;durP1;ratioP1;P2;durP2;ratioP2
15065;SDS011;7632;64.944;20.038;2024-02-26T00:00:02;2.00;;;1.60;;
15065;SDS011;7632;64.944;20.038;2024-02-26T00:02:34;1.57;;;1.47;;
15065;SDS011;7632;64.944;20.038;2024-02-26T00:05:03;1.53;;;1.43;;
15065;SDS011;7632;64.944;20.038;2024-02-26T00:07:31;1.60;;;1.50;;
15065;SDS011;7632;64.944;20.038;2024-02-26T00:09:58;2.10;;;1.60;;
15065;SDS011;7632;64.944;20.038;2024-02-26T00:12:25;1.47;;;1.37;;
15065;SDS011;7632;64.944;20.038;2024-02-26T00:14:53;4.27;;;1.57;;
15065;SDS011;7632;64.944;20.038;2024-02-26T00:17:23;1.97;;;1.60;;
15065;SDS011;7632;64.944;20.038;2024-02-26T00:19:49;1.60;;;1.40;;
15065;SDS011;7632;64.944;20.038;2024-02-26T00:22:16;2.33;;;1.60;;
15065;SDS011;7632;64.944;20.038;2024-02-26T00:24:43;1.63;;;1.53;;
15065;SDS011;7632;64.944;20.038;2024-02-26T00:27:10;1.47;;;1.37;;
15065;SDS011;7632;64.944;20.038;2024-02-26T00:29:37;1.93;;;1.60;;
15065;SDS011;7632;64.944;20.038;2024-02-26T00:32:05;1.60;;;1.50;;
15065;SDS011;7632;64.944;20.038;2024-02-26T00:34:32;1.70;;;1.50;;
15065;SDS011;7632;64.944;20.038;2024-02-26T00:36:59;1.70;;;1.50;;
15065;SDS011;7632;64.944;20.038;2024-02-26T00:39:26;1.77;;;1.43;;
15065;SDS011;7632;64.944;20.038;2024-02-26T00:41:53;1.70;;;1.60;;
15065;SDS011;7632;64.944;20.038;2024-02-26T00:44:20;2.00;;;1.73;;
15065;SDS011;7632;64.944;20.038;2024-02-26T00:46:47;2.10;;;1.77;;
15065;SDS011;7632;64.944;20.038;2024-02-26T00:49:15;3.17;;;1.77;;
15065;SDS011;7632;64.944;20.038;2024-02-26T00:51:42;1.90;;;1.60;;
15065;SDS011;7632;64.944;20.038;2024-02-26T00:54:09;1.70;;;1.60;;
15065;SDS011;7632;64.944;20.038;2024-02-26T00:56:35;1.63;;;1.53;;
15065;SDS011;7632;64.944;20.038;2024-02-26T00:59:02;2.30;;;1.87;;
15065;SDS011;7632;64.944;20.038;2024-02-26T01:01:29;1.87;;;1.60;;
15065;SDS011;7632;64.944;20.038;2024-02-26T01:03:56;1.80;;;1.37;;
15065;SDS011;7632;64.944;20.038;2024-02-26T01:06:24;1.67;;;1.53;;
15065;SDS011;7632;64.944;20.038;2024-02-26T01:08:51;2.10;;;1.53;;
15065;SDS011;7632;64.944;20.038;2024-02-26T01:11:18;2.47;;;1.50;;
15065;SDS011;7632;64.944;20.038;2024-02-26T01:13:44;1.80;;;1.50;;
15065;SDS011;7632;64.944;20.038;2024-02-26T01:16:11;1.73;;;1.50;;
15065;SDS011;7632;64.944;20.038;2024-02-26T01:18:38;1.60;;;1.47;;
15065;SDS011;7632;64.944;20.038;2024-02-26T01:21:05;2.00;;;1.73;;
15065;SDS011;7632;64.944;20.038;2024-02-26T01:23:35;1.73;;;1.53;;
15065;SDS011;7632;64.944;20.038;2024-02-26T01:26:02;1.33;;;1.23;;
15065;SDS011;7632;64.944;20.038;2024-02-26T01:28:30;2.20;;;1.60;;
15065;SDS011;7632;64.944;20.038;2024-02-26T01:30:56;2.47;;;1.40;;
15065;SDS011;7632;64.944;20.038;2024-02-26T01:33:25;1.67;;;1.50;;
15065;SDS011;7632;64.944;20.038;2024-02-26T01:35:52;1.77;;;1.67;;
15065;SDS011;7632;64.944;20.038;2024-02-26T01:38:19;1.50;;;1.40;;
15065;SDS011;7632;64.944;20.038;2024-02-26T01:40:47;1.50;;;1.40;;
15065;SDS011;7632;64.944;20.038;2024-02-26T01:43:14;1.60;;;1.50;;
15065;SDS011;7632;64.944;20.038;2024-02-26T01:45:41;1.97;;;1.53;;
15065;SDS011;7632;64.944;20.038;2024-02-26T01:48:08;2.67;;;1.70;;
15065;SDS011;7632;64.944;20.038;2024-02-26T01:50:35;1.87;;;1.50;;
15065;SDS011;7632;64.944;20.038;2024-02-26T01:53:03;2.27;;;1.67;;
15065;SDS011;7632;64.944;20.038;2024-02-26T01:55:31;1.70;;;1.47;;
15065;SDS011;7632;64.944;20.038;2024-02-26T01:57:59;1.70;;;1.60;;
15065;SDS011;7632;64.944;20.038;2024-02-26T02:00:27;1.77;;;1.47;;
15065;SDS011;7632;64.944;20.038;2024-02-26T02:02:54;1.40;;;1.30;;
15065;SDS011;7632;64.944;20.038;2024-02-26T02:05:21;2.10;;;1.60;;
15065;SDS011;7632;64.944;20.038;2024-02-26T02:07:48;1.77;;;1.60;;
15065;SDS011;7632;64.944;20.038;2024-02-26T02:10:16;1.73;;;1.63;;
15065;SDS011;7632;64.944;20.038;2024-02-26T02:12:47;1.83;;;1.50;;
15065;SDS011;7632;64.944;20.038;2024-02-26T02:15:16;1.70;;;1.60;;
15065;SDS011;7632;64.944;20.038;2024-02-26T02:17:43;2.03;;;1.60;;
15065;SDS011;7632;64.944;20.038;2024-02-26T02:20:14;1.50;;;1.33;;
15065;SDS011;7632;64.944;20.038;2024-02-26T02:22:44;1.70;;;1.53;;
15065;SDS011;7632;64.944;20.038;2024-02-26T02:25:12;2.17;;;1.70;;
15065;SDS011;7632;64.944;20.038;2024-02-26T02:27:39;1.70;;;1.60;;
15065;SDS011;7632;64.944;20.038;2024-02-26T02:30:07;2.73;;;1.50;;
15065;SDS011;7632;64.944;20.038;2024-02-26T02:32:35;1.77;;;1.50;;
15065;SDS011;7632;64.944;20.038;2024-02-26T02:35:04;1.70;;;1.60;;
15065;SDS011;7632;64.944;20.038;2024-02-26T02:37:31;1.70;;;1.60;;
15065;SDS011;7632;64.944;20.038;2024-02-26T02:39:59;2.37;;;1.70;;
15065;SDS011;7632;64.944;20.038;2024-02-26T02:42:26;1.90;;;1.70;;
15065;SDS011;7632;64.944;20.038;2024-02-26T02:44:53;1.73;;;1.60;;
15065;SDS011;7632;64.944;20.038;2024-02-26T02:47:20;1.50;;;1.40;;
15065;SDS011;7632;64.944;20.038;2024-02-26T02:49:47;1.77;;;1.43;;
15065;SDS011;7632;64.944;20.038;2024-02-26T02:52:14;1.60;;;1.43;;
15065;SDS011;7632;64.944;20.038;2024-02-26T02:54:41;1.63;;;1.53;;
15065;SDS011;7632;64.944;20.038;2024-02-26T02:57:09;1.50;;;1.40;;
15065;SDS011;7632;64.944;20.038;2024-02-26T02:59:36;1.87;;;1.63;;
15065;SDS011;7632;64.944;20.038;2024-02-26T03:02:03;2.30;;;1.60;;
15065;SDS011;7632;64.944;20.038;2024-02-26T03:04:31;2.07;;;1.87;;
15065;SDS011;7632;64.944;20.038;2024-02-26T03:06:58;1.90;;;1.67;;
15065;SDS011;7632;64.944;20.038;2024-02-26T03:09:25;1.70;;;1.40;;
15065;SDS011;7632;64.944;20.038;2024-02-26T03:11:52;2.87;;;1.67;;
15065;SDS011;7632;64.944;20.038;2024-02-26T03:14:20;2.23;;;1.60;;
15065;SDS011;7632;64.944;20.038;2024-02-26T03:16:47;1.83;;;1.60;;
15065;SDS011;7632;64.944;20.038;2024-02-26T03:19:14;2.00;;;1.63;;
15065;SDS011;7632;64.944;20.038;2024-02-26T03:21:42;1.40;;;1.30;;
15065;SDS011;7632;64.944;20.038;2024-02-26T03:24:08;2.33;;;1.57;;
15065;SDS011;7632;64.944;20.038;2024-02-26T03:26:37;1.70;;;1.60;;
15065;SDS011;7632;64.944;20.038;2024-02-26T03:29:04;1.77;;;1.67;;
15065;SDS011;7632;64.944;20.038;2024-02-26T03:31:32;1.80;;;1.53;;
15065;SDS011;7632;64.944;20.038;2024-02-26T03:33:59;1.53;;;1.30;;
15065;SDS011;7632;64.944;20.038;2024-02-26T03:36:26;3.23;;;1.77;;
15065;SDS011;7632;64.944;20.038;2024-02-26T03:38:53;1.67;;;1.57;;
15065;SDS011;7632;64.944;20.038;2024-02-26T03:41:19;1.70;;;1.40;;
15065;SDS011;7632;64.944;20.038;2024-02-26T03:43:46;1.60;;;1.50;;
15065;SDS011;7632;64.944;20.038;2024-02-26T03:46:13;1.60;;;1.50;;
15065;SDS011;7632;64.944;20.038;2024-02-26T03:48:41;1.70;;;1.50;;
15065;SDS011;7632;64.944;20.038;2024-02-26T03:51:08;1.53;;;1.43;;
15065;SDS011;7632;64.944;20.038;2024-02-26T03:53:36;1.80;;;1.53;;
15065;SDS011;7632;64.944;20.038;2024-02-26T03:56:03;3.47;;;1.77;;
15065;SDS011;7632;64.944;20.038;2024-02-26T03:58:30;2.40;;;1.63;;
15065;SDS011;7632;64.944;20.038;2024-02-26T04:00:57;1.67;;;1.40;;
15065;SDS011;7632;64.944;20.038;2024-02-26T04:03:24;1.50;;;1.40;;
15065;SDS011;7632;64.944;20.038;2024-02-26T04:05:53;1.47;;;1.37;;
15065;SDS011;7632;64.944;20.038;2024-02-26T04:08:20;1.40;;;1.23;;
15065;SDS011;7632;64.944;20.038;2024-02-26T04:10:47;1.70;;;1.60;;
15065;SDS011;7632;64.944;20.038;2024-02-26T04:13:14;1.70;;;1.50;;
15065;SDS011;7632;64.944;20.038;2024-02-26T04:15:41;1.50;;;1.40;;
15065;SDS011;7632;64.944;20.038;2024-02-26T04:18:08;1.73;;;1.50;;
15065;SDS011;7632;64.944;20.038;2024-02-26T04:20:35;1.80;;;1.57;;
15065;SDS011;7632;64.944;20.038;2024-02-26T04:23:03;1.70;;;1.50;;
15065;SDS011;7632;64.944;20.038;2024-02-26T04:25:30;1.50;;;1.40;;
15065;SDS011;7632;64.944;20.038;2024-02-26T04:27:57;1.43;;;1.23;;
15065;SDS011;7632;64.944;20.038;2024-02-26T04:30:24;1.30;;;1.20;;
15065;SDS011;7632;64.944;20.038;2024-02-26T04:32:51;2.10;;;1.60;;
15065;SDS011;7632;64.944;20.038;2024-02-26T04:35:18;1.50;;;1.40;;
15065;SDS011;7632;64.944;20.038;2024-02-26T04:37:46;1.60;;;1.30;;
15065;SDS011;7632;64.944;20.038;2024-02-26T04:40:14;2.27;;;1.50;;
15065;SDS011;7632;64.944;20.038;2024-02-26T04:42:41;2.03;;;1.70;;
15065;SDS011;7632;64.944;20.038;2024-02-26T04:45:08;1.60;;;1.50;;
15065;SDS011;7632;64.944;20.038;2024-02-26T04:47:35;1.73;;;1.63;;
15065;SDS011;7632;64.944;20.038;2024-02-26T04:50:02;2.47;;;1.50;;
15065;SDS011;7632;64.944;20.038;2024-02-26T04:52:29;1.50;;;1.40;;
15065;SDS011;7632;64.944;20.038;2024-02-26T04:54:56;2.43;;;1.80;;
15065;SDS011;7632;64.944;20.038;2024-02-26T04:57:26;2.07;;;1.53;;
15065;SDS011;7632;64.944;20.038;2024-02-26T04:59:53;1.90;;;1.70;;
15065;SDS011;7632;64.944;20.038;2024-02-26T05:02:20;2.77;;;1.70;;
15065;SDS011;7632;64.944;20.038;2024-02-26T05:04:47;2.03;;;1.70;;
15065;SDS011;7632;64.944;20.038;2024-02-26T05:07:13;1.63;;;1.40;;
15065;SDS011;7632;64.944;20.038;2024-02-26T05:09:42;2.97;;;1.70;;
15065;SDS011;7632;64.944;20.038;2024-02-26T05:12:09;2.83;;;1.93;;
15065;SDS011;7632;64.944;20.038;2024-02-26T05:14:38;2.30;;;1.47;;
15065;SDS011;7632;64.944;20.038;2024-02-26T05:17:05;1.70;;;1.60;;
15065;SDS011;7632;64.944;20.038;2024-02-26T05:19:32;1.77;;;1.60;;
15065;SDS011;7632;64.944;20.038;2024-02-26T05:21:59;1.87;;;1.73;;
15065;SDS011;7632;64.944;20.038;2024-02-26T05:24:25;2.80;;;1.60;;
15065;SDS011;7632;64.944;20.038;2024-02-26T05:26:53;1.50;;;1.40;;
15065;SDS011;7632;64.944;20.038;2024-02-26T05:29:20;2.20;;;1.37;;
15065;SDS011;7632;64.944;20.038;2024-02-26T08:30:28;0.90;;;0.90;;
15065;SDS011;7632;64.944;20.038;2024-02-26T08:32:55;0.80;;;0.80;;
15065;SDS011;7632;64.944;20.038;2024-02-26T08:35:22;0.90;;;0.90;;
15065;SDS011;7632;64.944;20.038;2024-02-26T08:37:49;1.13;;;1.03;;
15065;SDS011;7632;64.944;20.038;2024-02-26T08:40:16;0.90;;;0.90;;
15065;SDS011;7632;64.944;20.038;2024-02-26T08:42:44;0.90;;;0.90;;
15065;SDS011;7632;64.944;20.038;2024-02-26T08:45:11;0.70;;;0.70;;
15065;SDS011;7632;64.944;20.038;2024-02-26T08:47:40;1.10;;;1.00;;
15065;SDS011;7632;64.944;20.038;2024-02-26T08:50:07;0.70;;;0.70;;
15065;SDS011;7632;64.944;20.038;2024-02-26T08:52:37;0.90;;;0.90;;
15065;SDS011;7632;64.944;20.038;2024-02-26T08:55:04;0.93;;;0.90;;
15065;SDS011;7632;64.944;20.038;2024-02-26T08:57:34;1.30;;;0.83;;
15065;SDS011;7632;64.944;20.038;2024-02-26T09:00:00;1.10;;;1.00;;
15065;SDS011;7632;64.944;20.038;2024-02-26T09:02:27;0.70;;;0.70;;
15065;SDS011;7632;64.944;20.038;2024-02-26T09:04:56;0.80;;;0.80;;
15065;SDS011;7632;64.944;20.038;2024-02-26T09:07:22;0.83;;;0.83;;
15065;SDS011;7632;64.944;20.038;2024-02-26T09:09:49;0.83;;;0.80;;
15065;SDS011;7632;64.944;20.038;2024-02-26T09:12:16;1.13;;;0.90;;
15065;SDS011;7632;64.944;20.038;2024-02-26T09:14:43;0.83;;;0.83;;
15065;SDS011;7632;64.944;20.038;2024-02-26T09:17:10;1.20;;;0.90;;
15065;SDS011;7632;64.944;20.038;2024-02-26T09:19:37;1.40;;;0.90;;
15065;SDS011;7632;64.944;20.038;2024-02-26T09:22:05;1.60;;;1.00;;
15065;SDS011;7632;64.944;20.038;2024-02-26T09:24:32;1.03;;;1.00;;
15065;SDS011;7632;64.944;20.038;2024-02-26T09:26:59;1.10;;;1.00;;
15065;SDS011;7632;64.944;20.038;2024-02-26T09:29:26;0.80;;;0.80;;
15065;SDS011;7632;64.944;20.038;2024-02-26T09:31:52;1.20;;;1.10;;
15065;SDS011;7632;64.944;20.038;2024-02-26T09:34:19;1.20;;;1.10;;
15065;SDS011;7632;64.944;20.038;2024-02-26T09:36:46;0.80;;;0.80;;
15065;SDS011;7632;64.944;20.038;2024-02-26T09:39:14;0.70;;;0.70;;
15065;SDS011;7632;64.944;20.038;2024-02-26T09:41:46;1.20;;;1.10;;
15065;SDS011;7632;64.944;20.038;2024-02-26T09:44:14;1.17;;;0.90;;
15065;SDS011;7632;64.944;20.038;2024-02-26T09:46:44;0.80;;;0.80;;
15065;SDS011;7632;64.944;20.038;2024-02-26T09:49:11;0.93;;;0.90;;
15065;SDS011;7632;64.944;20.038;2024-02-26T09:51:40;0.80;;;0.80;;
15065;SDS011;7632;64.944;20.038;2024-02-26T09:54:09;1.67;;;0.97;;
15065;SDS011;7632;64.944;20.038;2024-02-26T09:56:38;0.90;;;0.90;;
15065;SDS011;7632;64.944;20.038;2024-02-26T09:59:06;0.90;;;0.90;;
15065;SDS011;7632;64.944;20.038;2024-02-26T10:01:39;1.10;;;1.00;;
15065;SDS011;7632;64.944;20.038;2024-02-26T10:04:08;0.80;;;0.80;;
15065;SDS011;7632;64.944;20.038;2024-02-26T10:06:36;0.90;;;0.90;;
15065;SDS011;7632;64.944;20.038;2024-02-26T10:09:03;0.80;;;0.80;;
15065;SDS011;7632;64.944;20.038;2024-02-26T10:11:32;0.80;;;0.80;;
15065;SDS011;7632;64.944;20.038;2024-02-26T10:14:00;1.00;;;0.87;;
15065;SDS011;7632;64.944;20.038;2024-02-26T10:16:27;1.00;;;0.90;;
15065;SDS011;7632;64.944;20.038;2024-02-26T10:18:54;1.10;;;1.00;;
15065;SDS011;7632;64.944;20.038;2024-02-26T10:21:22;0.77;;;0.77;;
15065;SDS011;7632;64.944;20.038;2024-02-26T10:23:49;0.70;;;0.70;;
15065;SDS011;7632;64.944;20.038;2024-02-26T10:26:16;0.80;;;0.80;;
15065;SDS011;7632;64.944;20.038;2024-02-26T10:28:44;0.80;;;0.80;;
15065;SDS011;7632;64.944;20.038;2024-02-26T10:31:13;0.80;;;0.80;;
15065;SDS011;7632;64.944;20.038;2024-02-26T10:33:41;0.80;;;0.80;;
15065;SDS011;7632;64.944;20.038;2024-02-26T10:36:09;1.07;;;1.00;;
15065;SDS011;7632;64.944;20.038;2024-02-26T10:38:36;1.07;;;0.90;;
15065;SDS011;7632;64.944;20.038;2024-02-26T10:41:04;0.73;;;0.73;;
15065;SDS011;7632;64.944;20.038;2024-02-26T10:43:31;0.77;;;0.77;;
15065;SDS011;7632;64.944;20.038;2024-02-26T10:45:58;1.07;;;0.97;;
15065;SDS011;7632;64.944;20.038;2024-02-26T10:48:26;0.80;;;0.80;;
15065;SDS011;7632;64.944;20.038;2024-02-26T10:50:53;0.60;;;0.60;;
15065;SDS011;7632;64.944;20.038;2024-02-26T10:53:22;0.90;;;0.90;;
15065;SDS011;7632;64.944;20.038;2024-02-26T10:55:52;0.70;;;0.70;;
15065;SDS011;7632;64.944;20.038;2024-02-26T10:58:21;0.90;;;0.90;;
15065;SDS011;7632;64.944;20.038;2024-02-26T11:00:50;0.80;;;0.80;;
15065;SDS011;7632;64.944;20.038;2024-02-26T11:03:17;0.80;;;0.80;;
15065;SDS011;7632;64.944;20.038;2024-02-26T11:05:47;0.80;;;0.80;;
15065;SDS011;7632;64.944;20.038;2024-02-26T11:08:15;0.63;;;0.63;;
15065;SDS011;7632;64.944;20.038;2024-02-26T11:10:44;0.80;;;0.80;;
15065;SDS011;7632;64.944;20.038;2024-02-26T11:13:14;0.83;;;0.83;;
15065;SDS011;7632;64.944;20.038;2024-02-26T11:15:44;0.77;;;0.77;;
15065;SDS011;7632;64.944;20.038;2024-02-26T11:18:13;0.90;;;0.90;;
15065;SDS011;7632;64.944;20.038;2024-02-26T11:20:41;0.77;;;0.77;;
15065;SDS011;7632;64.944;20.038;2024-02-26T11:23:10;0.70;;;0.70;;
15065;SDS011;7632;64.944;20.038;2024-02-26T11:25:37;0.90;;;0.80;;
15065;SDS011;7632;64.944;20.038;2024-02-26T11:28:06;0.90;;;0.90;;
15065;SDS011;7632;64.944;20.038;2024-02-26T11:30:38;0.80;;;0.80;;
15065;SDS011;7632;64.944;20.038;2024-02-26T11:33:09;0.80;;;0.80;;
15065;SDS011;7632;64.944;20.038;2024-02-26T11:35:37;1.37;;;0.80;;
15065;SDS011;7632;64.944;20.038;2024-02-26T11:38:05;0.70;;;0.70;;
15065;SDS011;7632;64.944;20.038;2024-02-26T11:40:37;0.57;;;0.57;;
15065;SDS011;7632;64.944;20.038;2024-02-26T11:43:06;0.67;;;0.67;;
15065;SDS011;7632;64.944;20.038;2024-02-26T11:45:51;1.33;;;0.90;;
15065;SDS011;7632;64.944;20.038;2024-02-26T11:48:22;0.80;;;0.80;;
15065;SDS011;7632;64.944;20.038;2024-02-26T11:50:50;0.80;;;0.80;;
15065;SDS011;7632;64.944;20.038;2024-02-26T11:53:25;0.60;;;0.60;;
15065;SDS011;7632;64.944;20.038;2024-02-26T11:56:14;0.80;;;0.80;;
15065;SDS011;7632;64.944;20.038;2024-02-26T11:58:47;0.80;;;0.80;;
15065;SDS011;7632;64.944;20.038;2024-02-26T12:04:11;0.80;;;0.80;;
15065;SDS011;7632;64.944;20.038;2024-02-26T12:06:53;0.77;;;0.77;;
15065;SDS011;7632;64.944;20.038;2024-02-26T12:09:32;0.70;;;0.70;;
15065;SDS011;7632;64.944;20.038;2024-02-26T12:12:02;1.63;;;1.53;;
15065;SDS011;7632;64.944;20.038;2024-02-26T12:14:32;0.70;;;0.70;;
15065;SDS011;7632;64.944;20.038;2024-02-26T12:17:00;0.70;;;0.70;;
15065;SDS011;7632;64.944;20.038;2024-02-26T12:19:27;0.80;;;0.80;;
15065;SDS011;7632;64.944;20.038;2024-02-26T12:21:54;0.80;;;0.80;;
15065;SDS011;7632;64.944;20.038;2024-02-26T12:24:21;0.80;;;0.80;;
15065;SDS011;7632;64.944;20.038;2024-02-26T12:26:48;0.87;;;0.80;;
15065;SDS011;7632;64.944;20.038;2024-02-26T12:29:16;0.90;;;0.90;;
15065;SDS011;7632;64.944;20.038;2024-02-26T12:31:43;0.83;;;0.83;;
15065;SDS011;7632;64.944;20.038;2024-02-26T12:34:10;0.80;;;0.80;;
15065;SDS011;7632;64.944;20.038;2024-02-26T12:36:39;0.70;;;0.70;;
15065;SDS011;7632;64.944;20.038;2024-02-26T12:39:06;0.87;;;0.87;;
15065;SDS011;7632;64.944;20.038;2024-02-26T12:41:34;1.23;;;0.90;;
15065;SDS011;7632;64.944;20.038;2024-02-26T12:44:01;1.10;;;0.83;;
15065;SDS011;7632;64.944;20.038;2024-02-26T12:46:29;0.70;;;0.70;;
15065;SDS011;7632;64.944;20.038;2024-02-26T12:48:57;0.50;;;0.50;;
15065;SDS011;7632;64.944;20.038;2024-02-26T12:51:25;0.60;;;0.60;;
15065;SDS011;7632;64.944;20.038;2024-02-26T12:53:53;0.77;;;0.70;;
15065;SDS011;7632;64.944;20.038;2024-02-26T12:56:21;0.97;;;0.93;;
15065;SDS011;7632;64.944;20.038;2024-02-26T12:58:49;0.80;;;0.80;;
15065;SDS011;7632;64.944;20.038;2024-02-26T13:01:18;0.90;;;0.90;;
15065;SDS011;7632;64.944;20.038;2024-02-26T13:03:52;0.80;;;0.80;;
15065;SDS011;7632;64.944;20.038;2024-02-26T13:06:20;0.70;;;0.70;;
15065;SDS011;7632;64.944;20.038;2024-02-26T13:08:48;1.17;;;1.07;;
15065;SDS011;7632;64.944;20.038;2024-02-26T13:11:15;0.67;;;0.67;;
15065;SDS011;7632;64.944;20.038;2024-02-26T13:13:42;0.70;;;0.70;;
15065;SDS011;7632;64.944;20.038;2024-02-26T13:16:09;0.87;;;0.87;;
15065;SDS011;7632;64.944;20.038;2024-02-26T13:18:40;0.70;;;0.70;;
15065;SDS011;7632;64.944;20.038;2024-02-26T13:21:09;0.77;;;0.77;;
15065;SDS011;7632;64.944;20.038;2024-02-26T13:23:37;0.80;;;0.80;;
15065;SDS011;7632;64.944;20.038;2024-02-26T13:26:05;0.87;;;0.87;;
15065;SDS011;7632;64.944;20.038;2024-02-26T13:28:32;0.70;;;0.70;;
15065;SDS011;7632;64.944;20.038;2024-02-26T13:30:59;0.77;;;0.77;;
15065;SDS011;7632;64.944;20.038;2024-02-26T13:33:28;0.80;;;0.80;;
15065;SDS011;7632;64.944;20.038;2024-02-26T13:35:56;0.80;;;0.60;;
15065;SDS011;7632;64.944;20.038;2024-02-26T13:38:25;0.83;;;0.83;;
15065;SDS011;7632;64.944;20.038;2024-02-26T13:40:52;0.60;;;0.60;;
15065;SDS011;7632;64.944;20.038;2024-02-26T13:43:19;0.77;;;0.77;;
15065;SDS011;7632;64.944;20.038;2024-02-26T17:09:34;0.70;;;0.70;;
15065;SDS011;7632;64.944;20.038;2024-02-26T17:12:02;0.60;;;0.60;;
15065;SDS011;7632;64.944;20.038;2024-02-26T17:14:29;1.00;;;1.00;;
15065;SDS011;7632;64.944;20.038;2024-02-26T17:16:56;0.70;;;0.70;;
15065;SDS011;7632;64.944;20.038;2024-02-26T17:19:24;0.70;;;0.70;;
15065;SDS011;7632;64.944;20.038;2024-02-26T17:21:51;0.60;;;0.60;;
15065;SDS011;7632;64.944;20.038;2024-02-26T17:24:18;0.57;;;0.57;;
15065;SDS011;7632;64.944;20.038;2024-02-26T17:26:46;0.73;;;0.73;;
15065;SDS011;7632;64.944;20.038;2024-02-26T17:29:13;0.77;;;0.77;;
15065;SDS011;7632;64.944;20.038;2024-02-26T17:31:40;0.70;;;0.70;;
15065;SDS011;7632;64.944;20.038;2024-02-26T17:34:08;0.50;;;0.50;;
15065;SDS011;7632;64.944;20.038;2024-02-26T17:36:36;0.80;;;0.80;;
15065;SDS011;7632;64.944;20.038;2024-02-26T17:39:03;0.70;;;0.70;;
15065;SDS011;7632;64.944;20.038;2024-02-26T17:41:30;0.67;;;0.67;;
15065;SDS011;7632;64.944;20.038;2024-02-26T17:43:58;0.80;;;0.80;;
15065;SDS011;7632;64.944;20.038;2024-02-26T17:46:25;0.93;;;0.93;;
15065;SDS011;7632;64.944;20.038;2024-02-26T17:48:53;0.60;;;0.60;;
15065;SDS011;7632;64.944;20.038;2024-02-26T17:51:20;0.80;;;0.77;;
15065;SDS011;7632;64.944;20.038;2024-02-26T17:53:47;0.80;;;0.80;;
15065;SDS011;7632;64.944;20.038;2024-02-26T17:56:14;1.17;;;0.93;;
15065;SDS011;7632;64.944;20.038;2024-02-26T17:58:41;1.23;;;1.13;;
15065;SDS011;7632;64.944;20.038;2024-02-26T18:01:10;2.10;;;0.80;;
15065;SDS011;7632;64.944;20.038;2024-02-26T18:03:36;1.00;;;0.80;;
15065;SDS011;7632;64.944;20.038;2024-02-26T18:06:03;0.70;;;0.70;;
15065;SDS011;7632;64.944;20.038;2024-02-26T18:08:31;0.77;;;0.77;;
15065;SDS011;7632;64.944;20.038;2024-02-26T18:10:58;1.27;;;0.80;;
15065;SDS011;7632;64.944;20.038;2024-02-26T18:13:25;0.90;;;0.90;;
15065;SDS011;7632;64.944;20.038;2024-02-26T18:15:52;0.70;;;0.70;;
15065;SDS011;7632;64.944;20.038;2024-02-26T18:18:20;0.87;;;0.87;;
15065;SDS011;7632;64.944;20.038;2024-02-26T18:20:47;1.63;;;0.93;;
15065;SDS011;7632;64.944;20.038;2024-02-26T18:23:13;0.87;;;0.80;;
15065;SDS011;7632;64.944;20.038;2024-02-26T18:25:40;0.90;;;0.90;;
15065;SDS011;7632;64.944;20.038;2024-02-26T18:28:07;0.70;;;0.70;;
15065;SDS011;7632;64.944;20.038;2024-02-26T18:30:34;0.77;;;0.77;;
15065;SDS011;7632;64.944;20.038;2024-02-26T18:33:02;0.77;;;0.77;;
15065;SDS011;7632;64.944;20.038;2024-02-26T18:35:31;0.73;;;0.73;;
15065;SDS011;7632;64.944;20.038;2024-02-26T18:37:58;1.33;;;0.90;;
15065;SDS011;7632;64.944;20.038;2024-02-26T18:40:24;0.83;;;0.83;;
15065;SDS011;7632;64.944;20.038;2024-02-26T18:42:51;0.93;;;0.93;;
15065;SDS011;7632;64.944;20.038;2024-02-26T18:45:18;0.83;;;0.83;;
15065;SDS011;7632;64.944;20.038;2024-02-26T18:47:45;0.70;;;0.70;;
15065;SDS011;7632;64.944;20.038;2024-02-26T18:50:14;1.00;;;0.90;;
15065;SDS011;7632;64.944;20.038;2024-02-26T18:52:43;0.90;;;0.90;;
15065;SDS011;7632;64.944;20.038;2024-02-26T18:55:11;0.97;;;0.87;;
15065;SDS011;7632;64.944;20.038;2024-02-26T18:57:38;0.87;;;0.80;;
15065;SDS011;7632;64.944;20.038;2024-02-26T19:00:07;0.80;;;0.80;;
15065;SDS011;7632;64.944;20.038;2024-02-26T19:02:34;0.90;;;0.90;;
15065;SDS011;7632;64.944;20.038;2024-02-26T19:05:01;0.90;;;0.90;;
15065;SDS011;7632;64.944;20.038;2024-02-26T19:07:28;1.10;;;1.00;;
15065;SDS011;7632;64.944;20.038;2024-02-26T19:09:56;0.90;;;0.90;;
15065;SDS011;7632;64.944;20.038;2024-02-26T19:12:23;0.80;;;0.80;;
15065;SDS011;7632;64.944;20.038;2024-02-26T19:14:50;0.93;;;0.90;;
15065;SDS011;7632;64.944;20.038;2024-02-26T19:17:18;1.00;;;1.00;;
15065;SDS011;7632;64.944;20.038;2024-02-26T19:19:47;0.80;;;0.80;;
15065;SDS011;7632;64.944;20.038;2024-02-26T19:22:14;1.90;;;1.80;;
15065;SDS011;7632;64.944;20.038;2024-02-26T19:24:41;1.10;;;1.00;;
15065;SDS011;7632;64.944;20.038;2024-02-26T19:27:10;1.60;;;1.50;;
15065;SDS011;7632;64.944;20.038;2024-02-26T19:29:36;1.00;;;1.00;;
15065;SDS011;7632;64.944;20.038;2024-02-26T19:32:04;2.47;;;1.40;;
15065;SDS011;7632;64.944;20.038;2024-02-26T19:34:36;1.40;;;1.30;;
15065;SDS011;7632;64.944;20.038;2024-02-26T19:37:03;0.70;;;0.70;;
15065;SDS011;7632;64.944;20.038;2024-02-26T19:39:30;1.27;;;1.00;;
15065;SDS011;7632;64.944;20.038;2024-02-26T19:41:57;1.10;;;1.00;;
15065;SDS011;7632;64.944;20.038;2024-02-26T19:44:25;0.80;;;0.80;;
15065;SDS011;7632;64.944;20.038;2024-02-26T19:46:52;1.00;;;1.00;;
15065;SDS011;7632;64.944;20.038;2024-02-26T19:49:19;1.20;;;1.10;;
15065;SDS011;7632;64.944;20.038;2024-02-26T19:51:46;1.00;;;0.90;;
15065;SDS011;7632;64.944;20.038;2024-02-26T19:54:13;1.03;;;1.00;;
15065;SDS011;7632;64.944;20.038;2024-02-26T19:56:40;1.70;;;0.80;;
15065;SDS011;7632;64.944;20.038;2024-02-26T19:59:08;1.20;;;1.10;;
15065;SDS011;7632;64.944;20.038;2024-02-26T20:01:36;1.17;;;0.97;;
15065;SDS011;7632;64.944;20.038;2024-02-26T20:04:03;1.63;;;1.00;;
15065;SDS011;7632;64.944;20.038;2024-02-26T20:06:37;2.07;;;1.00;;
15065;SDS011;7632;64.944;20.038;2024-02-26T20:09:04;1.20;;;1.10;;
15065;SDS011;7632;64.944;20.038;2024-02-26T20:11:31;1.10;;;1.00;;
15065;SDS011;7632;64.944;20.038;2024-02-26T20:13:57;2.53;;;0.97;;
15065;SDS011;7632;64.944;20.038;2024-02-26T20:16:24;1.43;;;1.10;;
15065;SDS011;7632;64.944;20.038;2024-02-26T20:18:53;0.80;;;0.80;;
15065;SDS011;7632;64.944;20.038;2024-02-26T20:21:20;0.90;;;0.90;;
15065;SDS011;7632;64.944;20.038;2024-02-26T20:23:47;1.13;;;0.90;;
15065;SDS011;7632;64.944;20.038;2024-02-26T20:26:12;0.70;;;0.70;;
15065;SDS011;7632;64.944;20.038;2024-02-26T20:28:39;1.10;;;1.00;;
15065;SDS011;7632;64.944;20.038;2024-02-26T20:31:06;1.10;;;1.00;;
15065;SDS011;7632;64.944;20.038;2024-02-26T20:33:33;0.80;;;0.80;;
15065;SDS011;7632;64.944;20.038;2024-02-26T20:36:03;0.80;;;0.80;;
15065;SDS011;7632;64.944;20.038;2024-02-26T20:38:30;1.73;;;0.90;;
15065;SDS011;7632;64.944;20.038;2024-02-26T20:40:57;1.10;;;1.00;;
15065;SDS011;7632;64.944;20.038;2024-02-26T20:43:24;0.80;;;0.80;;
15065;SDS011;7632;64.944;20.038;2024-02-26T20:45:51;0.97;;;0.83;;
15065;SDS011;7632;64.944;20.038;2024-02-26T20:48:17;1.77;;;1.00;;
15065;SDS011;7632;64.944;20.038;2024-02-26T20:50:45;1.27;;;0.80;;
15065;SDS011;7632;64.944;20.038;2024-02-26T20:53:13;0.80;;;0.80;;
15065;SDS011;7632;64.944;20.038;2024-02-26T20:55:40;0.90;;;0.90;;
15065;SDS011;7632;64.944;20.038;2024-02-26T20:58:08;0.90;;;0.80;;
15065;SDS011;7632;64.944;20.038;2024-02-26T21:00:34;1.87;;;1.13;;
15065;SDS011;7632;64.944;20.038;2024-02-26T21:03:03;0.87;;;0.83;;
15065;SDS011;7632;64.944;20.038;2024-02-26T21:05:33;1.53;;;1.00;;
15065;SDS011;7632;64.944;20.038;2024-02-26T21:08:01;1.00;;;0.90;;
15065;SDS011;7632;64.944;20.038;2024-02-26T21:10:29;0.90;;;0.70;;
15065;SDS011;7632;64.944;20.038;2024-02-26T21:12:56;0.80;;;0.80;;
